• Join FlightAware (Why Join?)
  • Login
  • US Flag 
05:46PM EDT


 

Airport Tracker/Info


-or-


 

Live Flight TrackerFlight Track Log ✈ SWA1643 ✈ 22-Jun-2013 ✈ KSJC - KSAN

Flight Track Log - Related Links

Times and Time Zones

All times are in EDT time to prevent confusion due to time zone crossing. See the SWA1643 flight status page for this flight to view local times or setup timezone preferences in your user account.

Time Position Orientation Groundspeed Altitude Reporting Facility
EDT Latitude Longitude Course Direction KTS MPH feet Rate Location/Type
11:46PM 37.4333 -121.9667 345° North 229 264 5,000  Level Northern Cal TRACON
11:47PM 37.4500 -121.9000 73° East 253 291 5,000 1,560 Level Northern Cal TRACON
11:49PM 37.3506 -121.8067 143° Southeast 250 288 9,500 2,940 Climbing Oakland Center
11:50PM 37.2867 -121.7344 138° Southeast 309 356 13,300 3,780 Climbing Oakland Center
11:51PM 37.2106 -121.6528 139° Southeast 353 406 17,300 3,480 Climbing Oakland Center
11:52PM 37.1311 -121.5656 139° Southeast 375 432 20,400 3,000 Climbing Oakland Center
11:53PM 37.0367 -121.4639 139° Southeast 429 494 23,400 2,880 Climbing Oakland Center
11:54PM 36.9433 -121.3583 138° Southeast 448 516 26,300 2,820 Climbing Oakland Center
11:55PM 36.8444 -121.2542 140° Southeast 464 534 29,200 2,880 Climbing Oakland Center
11:56PM 36.7456 -121.1478 139° Southeast 462 532 32,200 2,640 Climbing Oakland Center
11:57PM 36.6494 -121.0417 138° Southeast 460 529 34,600 2,160 Climbing Oakland Center
11:58PM 36.5486 -120.9414 141° Southeast 463 533 36,600 1,140 Climbing Oakland Center
11:59PM 36.4367 -120.8592 149° Southeast 466 536 37,000 240 Climbing Oakland Center
12:00AM 36.3272 -120.7769 149° Southeast 461 531 37,100 1,320 Climbing Oakland Center
12:01AM 36.1967 -120.6797 149° Southeast 457 526 39,700 1,800 Climbing Oakland Center
12:02AM 36.0869 -120.5981 149° Southeast 457 526 40,800 600 Climbing Oakland Center
12:03AM 35.9761 -120.5147 149° Southeast 465 535 41,000 60 Climbing Oakland Center
12:04AM 35.8644 -120.4306 149° Southeast 470 541 41,000  Level Oakland Center
12:05AM 35.7522 -120.3483 149° Southeast 469 540 41,000  Level Oakland Center
12:06AM 35.6408 -120.2650 149° Southeast 467 537 41,000  Level Oakland Center
12:07AM 35.5278 -120.1814 149° Southeast 467 537 41,000  Level Oakland Center
12:08AM 35.4206 -120.0836 143° Southeast 474 545 41,000  Level Oakland Center
12:09AM 35.3222 -119.9719 137° Southeast 477 549 41,000  Level Oakland Center
12:10AM 35.2244 -119.8617 137° Southeast 475 547 41,000  Level Oakland Center
12:11AM 35.1289 -119.7528 137° Southeast 471 542 41,000  Level Los Angeles Center
12:12AM 35.0322 -119.6442 137° Southeast 471 542 41,000  Level Los Angeles Center
12:13AM 34.9364 -119.5347 137° Southeast 472 543 41,000  Level Los Angeles Center
12:14AM 34.8392 -119.4267 138° Southeast 473 544 41,000  Level Los Angeles Center
12:15AM 34.7228 -119.2958 137° Southeast 474 545 41,000  Level Los Angeles Center
12:16AM 34.6250 -119.1894 138° Southeast 473 544 41,000  Level Los Angeles Center
12:17AM 34.5289 -119.0844 138° Southeast 474 545 41,000  Level Los Angeles Center
12:18AM 34.4314 -118.9769 138° Southeast 477 549 41,000  Level Los Angeles Center
12:19AM 34.3336 -118.8711 138° Southeast 472 543 41,000 -540 Level Los Angeles Center
12:20AM 34.2172 -118.7422 138° Southeast 472 543 40,000 -1,020 Descending Los Angeles Center
12:21AM 34.1175 -118.6328 138° Southeast 480 552 39,000 -540 Descending Los Angeles Center
12:23AM 34.0178 -118.5253 138° Southeast 481 554 39,000  Level Los Angeles Center
12:24AM 33.9208 -118.4156 137° Southeast 478 550 39,000 -600 Level Los Angeles Center
12:25AM 33.8381 -118.3061 132° Southeast 482 555 37,900 -2,460 Descending Los Angeles Center
12:26AM 33.7289 -118.1689 134° Southeast 492 566 34,100 -3,660 Descending Los Angeles Center
12:27AM 33.6344 -118.0494 134° Southeast 493 567 30,500 -3,300 Descending Los Angeles Center
12:28AM 33.5428 -117.9328 133° Southeast 484 557 27,500 -2,880 Descending Los Angeles Center
12:29AM 33.4550 -117.8222 134° Southeast 467 537 24,700 -2,760 Descending Los Angeles Center
12:30AM 33.3731 -117.7175 133° Southeast 441 507 21,900 -2,700 Descending Los Angeles Center
12:31AM 33.2947 -117.6208 134° Southeast 417 480 19,300 -2,640 Descending Los Angeles Center
12:32AM 33.2158 -117.5325 137° Southeast 397 457 16,600 -2,280 Descending Los Angeles Center
12:33AM 33.1275 -117.4597 145° Southeast 388 447 14,700 -2,280 Descending Los Angeles Center
12:34AM 33.0414 -117.3931 147° Southeast 373 429 12,000 -2,280 Descending Los Angeles Center
12:35AM 32.9667 -117.3333 146° Southeast 341 392 10,300 -1,560 Descending Southern California TRACON
12:36AM 32.8833 -117.2667 146° Southeast 307 353 9,000 -1,500 Descending Southern California TRACON
12:37AM 32.8500 -117.1833 115° Southeast 305 351 7,300 -1,380 Descending Southern California TRACON
12:38AM 32.8000 -117.1000 126° Southeast 288 331 6,300 -1,200 Descending Southern California TRACON
12:39AM 32.7667 -117.0167 115° Southeast 276 318 5,000 -660 Descending Southern California TRACON
12:40AM 32.7500 -116.9333 103° East 211 243 5,000 -420 Level Southern California TRACON
12:41AM 32.7000 -116.9333 180° South 188 216 4,200 -540 Descending Southern California TRACON
12:42AM 32.6833 -116.9667 239° Southwest 192 221 4,000 -600 Descending Southern California TRACON
12:43AM 32.6833 -117.0167 270° West 165 190 3,100 -900 Descending Southern California TRACON
12:44AM 32.7000 -117.0667 292° West 167 192 2,300 -900 Descending Southern California TRACON
12:45AM 32.7167 -117.1167 292° West 152 175 1,400 -900 Descending Southern California TRACON
12:46AM 32.7333 -117.1500 301° West 132 152 500 -900 Descending Southern California TRACON